sensor_id;sensor_type;location;lat;lon;timestamp;pressure;altitude;pressure_sealevel;temperature;humidity
65800;BME280;52544;48.116;11.660;2022-09-09T00:00:40;95433.94;;;16.07;80.67
65800;BME280;52544;48.116;11.660;2022-09-09T00:03:21;95425.59;;;16.02;80.93
65800;BME280;52544;48.116;11.660;2022-09-09T00:09:08;95430.06;;;15.61;83.59
65800;BME280;52544;48.116;11.660;2022-09-09T00:11:47;95430.56;;;15.56;83.83
65800;BME280;52544;48.116;11.660;2022-09-09T00:14:35;95429.88;;;15.46;84.57
65800;BME280;52544;48.116;11.660;2022-09-09T00:17:09;95430.53;;;15.48;84.70
65800;BME280;52544;48.116;11.660;2022-09-09T00:22:41;95428.84;;;15.22;86.40
65800;BME280;52544;48.116;11.660;2022-09-09T00:25:15;95424.66;;;15.20;86.99
65800;BME280;52544;48.116;11.660;2022-09-09T00:27:47;95428.16;;;15.29;86.90
65800;BME280;52544;48.116;11.660;2022-09-09T00:30:15;95426.03;;;15.40;86.15
65800;BME280;52544;48.116;11.660;2022-09-09T00:32:44;95427.22;;;15.38;85.84
65800;BME280;52544;48.116;11.660;2022-09-09T00:37:35;95429.88;;;15.62;84.67
65800;BME280;52544;48.116;11.660;2022-09-09T00:40:02;95431.19;;;15.50;84.47
65800;BME280;52544;48.116;11.660;2022-09-09T00:42:41;95436.22;;;15.53;84.43
65800;BME280;52544;48.116;11.660;2022-09-09T00:47:49;95441.56;;;15.53;84.54
65800;BME280;52544;48.116;11.660;2022-09-09T00:50:39;95444.56;;;15.58;84.27
65800;BME280;52544;48.116;11.660;2022-09-09T00:58:34;95439.88;;;15.44;84.75
65800;BME280;52544;48.116;11.660;2022-09-09T01:01:18;95434.88;;;15.49;84.22
65800;BME280;52544;48.116;11.660;2022-09-09T01:03:54;95446.22;;;15.43;85.13
65800;BME280;52544;48.116;11.660;2022-09-09T01:06:37;95433.53;;;15.45;84.35
65800;BME280;52544;48.116;11.660;2022-09-09T01:09:26;95430.84;;;15.37;84.44
65800;BME280;52544;48.116;11.660;2022-09-09T01:12:01;95440.53;;;15.46;84.28
65800;BME280;52544;48.116;11.660;2022-09-09T01:28:11;95430.06;;;15.61;85.04
65800;BME280;52544;48.116;11.660;2022-09-09T01:30:40;95434.94;;;15.65;84.41
65800;BME280;52544;48.116;11.660;2022-09-09T01:33:12;95430.44;;;15.74;84.46
65800;BME280;52544;48.116;11.660;2022-09-09T01:35:58;95427.13;;;15.80;84.34
65800;BME280;52544;48.116;11.660;2022-09-09T01:38:26;95429.94;;;15.79;84.28
65800;BME280;52544;48.116;11.660;2022-09-09T01:40:53;95427.59;;;15.75;84.29
65800;BME280;52544;48.116;11.660;2022-09-09T01:43:22;95430.94;;;15.78;84.75
65800;BME280;52544;48.116;11.660;2022-09-09T01:45:52;95438.13;;;15.77;85.63
65800;BME280;52544;48.116;11.660;2022-09-09T01:48:18;95428.28;;;15.78;85.80
65800;BME280;52544;48.116;11.660;2022-09-09T01:50:44;95433.44;;;15.79;85.70
65800;BME280;52544;48.116;11.660;2022-09-09T01:53:11;95444.78;;;15.81;86.29
65800;BME280;52544;48.116;11.660;2022-09-09T01:55:40;95438.94;;;15.78;86.43
65800;BME280;52544;48.116;11.660;2022-09-09T01:58:27;95431.25;;;15.83;86.88
65800;BME280;52544;48.116;11.660;2022-09-09T02:01:04;95432.91;;;15.84;86.97
65800;BME280;52544;48.116;11.660;2022-09-09T02:03:32;95424.25;;;15.90;86.34
65800;BME280;52544;48.116;11.660;2022-09-09T02:06:28;95426.75;;;15.83;87.34
65800;BME280;52544;48.116;11.660;2022-09-09T02:08:56;95430.63;;;15.89;86.82
65800;BME280;52544;48.116;11.660;2022-09-09T02:11:24;95424.41;;;15.88;87.79
65800;BME280;52544;48.116;11.660;2022-09-09T02:14:00;95420.25;;;15.94;87.18
65800;BME280;52544;48.116;11.660;2022-09-09T02:16:38;95425.25;;;15.97;87.01
65800;BME280;52544;48.116;11.660;2022-09-09T02:19:11;95415.56;;;16.04;86.20
65800;BME280;52544;48.116;11.660;2022-09-09T02:21:42;95419.25;;;16.03;86.01
65800;BME280;52544;48.116;11.660;2022-09-09T02:24:10;95420.78;;;15.97;86.04
65800;BME280;52544;48.116;11.660;2022-09-09T02:26:40;95421.94;;;15.87;85.77
65800;BME280;52544;48.116;11.660;2022-09-09T02:29:19;95415.94;;;15.77;86.42
65800;BME280;52544;48.116;11.660;2022-09-09T02:31:49;95424.44;;;15.72;87.02
65800;BME280;52544;48.116;11.660;2022-09-09T02:34:17;95422.25;;;15.59;88.38
65800;BME280;52544;48.116;11.660;2022-09-09T02:36:45;95420.03;;;15.55;88.86
65800;BME280;52544;48.116;11.660;2022-09-09T02:39:12;95423.06;;;15.52;90.37
65800;BME280;52544;48.116;11.660;2022-09-09T02:41:39;95419.19;;;15.46;89.81
65800;BME280;52544;48.116;11.660;2022-09-09T02:44:11;95410.53;;;15.44;90.22
65800;BME280;52544;48.116;11.660;2022-09-09T02:49:11;95414.22;;;15.51;89.88
65800;BME280;52544;48.116;11.660;2022-09-09T02:52:03;95405.72;;;15.47;89.72
65800;BME280;52544;48.116;11.660;2022-09-09T02:54:37;95408.53;;;15.46;89.48
65800;BME280;52544;48.116;11.660;2022-09-09T02:57:19;95415.88;;;15.44;89.73
65800;BME280;52544;48.116;11.660;2022-09-09T02:59:46;95418.88;;;15.41;89.83
65800;BME280;52544;48.116;11.660;2022-09-09T03:02:12;95415.53;;;15.39;90.01
65800;BME280;52544;48.116;11.660;2022-09-09T03:04:39;95409.03;;;15.41;89.91
65800;BME280;52544;48.116;11.660;2022-09-09T03:07:05;95419.56;;;15.43;90.60
65800;BME280;52544;48.116;11.660;2022-09-09T03:09:31;95415.56;;;15.47;90.28
65800;BME280;52544;48.116;11.660;2022-09-09T03:11:58;95409.72;;;15.43;90.04
65800;BME280;52544;48.116;11.660;2022-09-09T03:14:23;95404.06;;;15.46;90.09
65800;BME280;52544;48.116;11.660;2022-09-09T03:16:52;95400.53;;;15.54;90.28
65800;BME280;52544;48.116;11.660;2022-09-09T03:19:18;95407.88;;;15.52;89.59
65800;BME280;52544;48.116;11.660;2022-09-09T03:21:45;95402.56;;;15.52;89.89
65800;BME280;52544;48.116;11.660;2022-09-09T03:24:11;95406.69;;;15.55;89.86
65800;BME280;52544;48.116;11.660;2022-09-09T03:26:36;95400.91;;;15.51;90.16
65800;BME280;52544;48.116;11.660;2022-09-09T03:29:03;95399.56;;;15.47;89.87
65800;BME280;52544;48.116;11.660;2022-09-09T03:31:32;95399.56;;;15.47;89.95
65800;BME280;52544;48.116;11.660;2022-09-09T03:33:57;95396.19;;;15.45;90.03
65800;BME280;52544;48.116;11.660;2022-09-09T03:36:26;95397.03;;;15.45;89.61
65800;BME280;52544;48.116;11.660;2022-09-09T03:38:52;95400.72;;;15.44;89.79
65800;BME280;52544;48.116;11.660;2022-09-09T03:41:19;95402.53;;;15.44;90.39
65800;BME280;52544;48.116;11.660;2022-09-09T03:43:44;95394.88;;;15.41;90.31
65800;BME280;52544;48.116;11.660;2022-09-09T03:46:10;95392.38;;;15.39;90.51
65800;BME280;52544;48.116;11.660;2022-09-09T03:48:35;95401.84;;;15.42;90.23
65800;BME280;52544;48.116;11.660;2022-09-09T03:51:00;95397.53;;;15.41;90.24
65800;BME280;52544;48.116;11.660;2022-09-09T03:53:26;95391.19;;;15.42;89.95
65800;BME280;52544;48.116;11.660;2022-09-09T03:55:54;95396.53;;;15.34;90.85
65800;BME280;52544;48.116;11.660;2022-09-09T03:58:22;95398.84;;;15.37;91.05
65800;BME280;52544;48.116;11.660;2022-09-09T04:00:54;95393.84;;;15.42;91.01
65800;BME280;52544;48.116;11.660;2022-09-09T04:03:19;95383.88;;;15.44;91.59
65800;BME280;52544;48.116;11.660;2022-09-09T04:05:48;95389.22;;;15.44;91.38
65800;BME280;52544;48.116;11.660;2022-09-09T04:08:14;95396.19;;;15.45;91.50
65800;BME280;52544;48.116;11.660;2022-09-09T04:10:39;95396.88;;;15.47;91.36
65800;BME280;52544;48.116;11.660;2022-09-09T04:13:05;95394.22;;;15.47;91.11
65800;BME280;52544;48.116;11.660;2022-09-09T04:15:30;95394.22;;;15.47;90.56
65800;BME280;52544;48.116;11.660;2022-09-09T04:17:56;95389.88;;;15.46;90.80
65800;BME280;52544;48.116;11.660;2022-09-09T04:20:22;95382.88;;;15.45;91.28
65800;BME280;52544;48.116;11.660;2022-09-09T04:22:48;95381.88;;;15.46;90.99
65800;BME280;52544;48.116;11.660;2022-09-09T04:25:13;95380.53;;;15.42;91.38
65800;BME280;52544;48.116;11.660;2022-09-09T04:27:39;95382.88;;;15.45;91.05
65800;BME280;52544;48.116;11.660;2022-09-09T04:30:05;95378.03;;;15.40;91.19
65800;BME280;52544;48.116;11.660;2022-09-09T04:32:35;95369.84;;;15.42;91.10
65800;BME280;52544;48.116;11.660;2022-09-09T04:35:02;95359.06;;;15.43;91.56
65800;BME280;52544;48.116;11.660;2022-09-09T04:37:28;95367.88;;;15.44;91.28
65800;BME280;52544;48.116;11.660;2022-09-09T04:39:53;95372.88;;;15.39;92.17
65800;BME280;52544;48.116;11.660;2022-09-09T04:42:19;95371.88;;;15.40;91.46
65800;BME280;52544;48.116;11.660;2022-09-09T04:44:45;95361.22;;;15.40;91.61
65800;BME280;52544;48.116;11.660;2022-09-09T04:47:11;95367.69;;;15.37;91.41
65800;BME280;52544;48.116;11.660;2022-09-09T04:49:36;95368.88;;;15.43;91.80
65800;BME280;52544;48.116;11.660;2022-09-09T04:52:02;95372.19;;;15.37;91.78
65800;BME280;52544;48.116;11.660;2022-09-09T04:54:28;95374.22;;;15.35;91.80
65800;BME280;52544;48.116;11.660;2022-09-09T04:56:54;95367.69;;;15.29;92.25
65800;BME280;52544;48.116;11.660;2022-09-09T04:59:20;95365.88;;;15.30;92.30
65800;BME280;52544;48.116;11.660;2022-09-09T05:01:47;95362.22;;;15.31;92.50
65800;BME280;52544;48.116;11.660;2022-09-09T05:04:13;95365.88;;;15.30;92.37
65800;BME280;52544;48.116;11.660;2022-09-09T05:06:40;95376.53;;;15.30;92.13
65800;BME280;52544;48.116;11.660;2022-09-09T05:09:06;95372.53;;;15.25;92.15
65800;BME280;52544;48.116;11.660;2022-09-09T05:11:32;95375.84;;;15.19;92.43
65800;BME280;52544;48.116;11.660;2022-09-09T05:14:01;95383.19;;;15.17;92.99
65800;BME280;52544;48.116;11.660;2022-09-09T05:16:26;95382.34;;;15.17;93.19
65800;BME280;52544;48.116;11.660;2022-09-09T05:18:52;95384.16;;;15.16;93.38
65800;BME280;52544;48.116;11.660;2022-09-09T05:21:19;95382.84;;;15.20;93.76
65800;BME280;52544;48.116;11.660;2022-09-09T05:23:45;95379.19;;;15.21;93.30
65800;BME280;52544;48.116;11.660;2022-09-09T05:26:13;95392.84;;;15.27;92.90
65800;BME280;52544;48.116;11.660;2022-09-09T05:28:38;95391.69;;;15.29;92.41
65800;BME280;52544;48.116;11.660;2022-09-09T05:31:06;95389.19;;;15.28;92.35
65800;BME280;52544;48.116;11.660;2022-09-09T05:33:38;95390.53;;;15.32;92.25
65800;BME280;52544;48.116;11.660;2022-09-09T05:36:08;95387.69;;;15.33;92.12
65800;BME280;52544;48.116;11.660;2022-09-09T05:38:36;95386.53;;;15.36;91.92
65800;BME280;52544;48.116;11.660;2022-09-09T05:41:02;95382.88;;;15.37;91.94
65800;BME280;52544;48.116;11.660;2022-09-09T05:43:28;95381.88;;;15.38;92.02
65800;BME280;52544;48.116;11.660;2022-09-09T05:46:02;95391.69;;;15.37;91.95
65800;BME280;52544;48.116;11.660;2022-09-09T05:48:33;95388.19;;;15.37;92.34
65800;BME280;52544;48.116;11.660;2022-09-09T05:50:59;95395.53;;;15.35;91.87
65800;BME280;52544;48.116;11.660;2022-09-09T05:53:26;95392.38;;;15.39;92.33
65800;BME280;52544;48.116;11.660;2022-09-09T05:56:04;95387.22;;;15.38;92.23
65800;BME280;52544;48.116;11.660;2022-09-09T05:58:34;95396.69;;;15.40;92.11
65800;BME280;52544;48.116;11.660;2022-09-09T06:01:04;95386.72;;;15.42;91.82
65800;BME280;52544;48.116;11.660;2022-09-09T06:03:30;95397.38;;;15.42;91.80
65800;BME280;52544;48.116;11.660;2022-09-09T06:05:59;95393.53;;;15.45;92.20
65800;BME280;52544;48.116;11.660;2022-09-09T06:08:25;95397.53;;;15.49;91.90
65800;BME280;52544;48.116;11.660;2022-09-09T06:10:51;95397.88;;;15.54;92.07
65800;BME280;52544;48.116;11.660;2022-09-09T06:13:17;95398.22;;;15.59;92.19
65800;BME280;52544;48.116;11.660;2022-09-09T06:15:52;95405.88;;;15.62;91.75
65800;BME280;52544;48.116;11.660;2022-09-09T06:18:18;95400.41;;;15.64;89.62
65800;BME280;52544;48.116;11.660;2022-09-09T06:20:56;95398.72;;;15.63;89.73
65800;BME280;52544;48.116;11.660;2022-09-09T06:23:21;95406.28;;;15.67;89.22
65800;BME280;52544;48.116;11.660;2022-09-09T06:25:47;95403.59;;;15.67;89.03
65800;BME280;52544;48.116;11.660;2022-09-09T06:28:14;95395.59;;;15.67;88.23
65800;BME280;52544;48.116;11.660;2022-09-09T06:30:40;95399.75;;;15.70;88.37
65800;BME280;52544;48.116;11.660;2022-09-09T06:33:06;95399.09;;;15.68;87.89
65800;BME280;52544;48.116;11.660;2022-09-09T06:35:31;95395.09;;;15.72;87.31
65800;BME280;52544;48.116;11.660;2022-09-09T06:37:57;95407.25;;;15.74;87.39
65800;BME280;52544;48.116;11.660;2022-09-09T06:40:24;95403.56;;;15.75;87.50
65800;BME280;52544;48.116;11.660;2022-09-09T06:42:49;95410.59;;;15.77;87.44
65800;BME280;52544;48.116;11.660;2022-09-09T06:45:15;95410.25;;;15.80;86.93
65800;BME280;52544;48.116;11.660;2022-09-09T06:47:40;95406.25;;;15.84;86.95
65800;BME280;52544;48.116;11.660;2022-09-09T06:50:07;95415.75;;;15.86;87.39
65800;BME280;52544;48.116;11.660;2022-09-09T06:52:33;95417.59;;;15.86;87.49
65800;BME280;52544;48.116;11.660;2022-09-09T06:54:58;95416.25;;;15.90;87.76
65800;BME280;52544;48.116;11.660;2022-09-09T06:57:24;95416.25;;;15.90;88.67
65800;BME280;52544;48.116;11.660;2022-09-09T06:59:49;95409.91;;;15.83;88.52
65800;BME280;52544;48.116;11.660;2022-09-09T07:02:15;95415.56;;;15.88;89.16
65800;BME280;52544;48.116;11.660;2022-09-09T07:04:41;95422.75;;;15.87;89.39
65800;BME280;52544;48.116;11.660;2022-09-09T07:07:06;95426.25;;;15.88;90.23
65800;BME280;52544;48.116;11.660;2022-09-09T07:09:33;95423.25;;;15.91;90.10
65800;BME280;52544;48.116;11.660;2022-09-09T07:11:58;95419.59;;;15.92;89.98
65800;BME280;52544;48.116;11.660;2022-09-09T07:14:24;95413.28;;;15.93;90.38
65800;BME280;52544;48.116;11.660;2022-09-09T07:16:50;95419.06;;;15.96;90.05
65800;BME280;52544;48.116;11.660;2022-09-09T07:19:15;95423.25;;;15.99;90.21
65800;BME280;52544;48.116;11.660;2022-09-09T07:21:41;95430.94;;;16.02;90.06
65800;BME280;52544;48.116;11.660;2022-09-09T07:24:07;95424.41;;;16.05;89.79
65800;BME280;52544;48.116;11.660;2022-09-09T07:26:35;95433.09;;;16.07;90.52
65800;BME280;52544;48.116;11.660;2022-09-09T07:29:02;95438.44;;;16.07;91.39
65800;BME280;52544;48.116;11.660;2022-09-09T07:31:32;95445.63;;;16.06;90.72
65800;BME280;52544;48.116;11.660;2022-09-09T07:33:59;95464.78;;;16.10;90.89
65800;BME280;52544;48.116;11.660;2022-09-09T07:36:28;95483.31;;;16.11;90.68
65800;BME280;52544;48.116;11.660;2022-09-09T07:38:59;95479.97;;;16.09;90.28
65800;BME280;52544;48.116;11.660;2022-09-09T07:41:45;95467.63;;;16.08;91.02
65800;BME280;52544;48.116;11.660;2022-09-09T07:44:20;95477.28;;;16.01;90.75
65800;BME280;52544;48.116;11.660;2022-09-09T07:46:48;95484.66;;;16.07;90.60
65800;BME280;52544;48.116;11.660;2022-09-09T07:49:14;95485.28;;;16.09;90.31
65800;BME280;52544;48.116;11.660;2022-09-09T07:51:43;95486.47;;;16.07;90.35
65800;BME280;52544;48.116;11.660;2022-09-09T07:54:12;95485.97;;;16.11;88.72
65800;BME280;52544;48.116;11.660;2022-09-09T07:56:39;95493.31;;;16.17;89.10
65800;BME280;52544;48.116;11.660;2022-09-09T07:59:04;95490.97;;;16.22;88.63
65800;BME280;52544;48.116;11.660;2022-09-09T08:01:39;95492.16;;;16.28;89.42
65800;BME280;52544;48.116;11.660;2022-09-09T08:04:08;95487.63;;;16.29;88.61
65800;BME280;52544;48.116;11.660;2022-09-09T08:06:39;95487.94;;;16.34;88.00
65800;BME280;52544;48.116;11.660;2022-09-09T08:09:06;95477.09;;;16.35;87.89
65800;BME280;52544;48.116;11.660;2022-09-09T08:11:33;95491.97;;;16.38;87.03
65800;BME280;52544;48.116;11.660;2022-09-09T08:13:59;95498.63;;;16.34;86.62
65800;BME280;52544;48.116;11.660;2022-09-09T08:16:32;95504.97;;;16.41;87.02
65800;BME280;52544;48.116;11.660;2022-09-09T08:18:58;95493.47;;;16.40;88.34
65800;BME280;52544;48.116;11.660;2022-09-09T08:21:29;95503.63;;;16.45;88.78
65800;BME280;52544;48.116;11.660;2022-09-09T08:23:56;95507.97;;;16.46;88.44
65800;BME280;52544;48.116;11.660;2022-09-09T08:26:30;95516.63;;;16.48;88.21
65800;BME280;52544;48.116;11.660;2022-09-09T08:28:57;95513.63;;;16.51;89.48
65800;BME280;52544;48.116;11.660;2022-09-09T08:31:25;95513.94;;;16.56;89.78
65800;BME280;52544;48.116;11.660;2022-09-09T08:33:53;95521.47;;;16.61;88.70
65800;BME280;52544;48.116;11.660;2022-09-09T08:36:21;95516.28;;;16.67;88.04
65800;BME280;52544;48.116;11.660;2022-09-09T08:38:48;95518.44;;;16.72;89.32
65800;BME280;52544;48.116;11.660;2022-09-09T08:41:32;95524.50;;;16.74;87.88
65800;BME280;52544;48.116;11.660;2022-09-09T08:47:06;95527.81;;;16.76;88.93
65800;BME280;52544;48.116;11.660;2022-09-09T08:49:44;95524.81;;;16.79;88.64
65800;BME280;52544;48.116;11.660;2022-09-09T08:52:49;95523.63;;;16.82;88.54
65800;BME280;52544;48.116;11.660;2022-09-09T08:55:27;95516.28;;;16.84;88.28
65800;BME280;52544;48.116;11.660;2022-09-09T08:57:55;95517.94;;;16.85;88.45
65800;BME280;52544;48.116;11.660;2022-09-09T09:00:21;95512.59;;;16.85;87.83
65800;BME280;52544;48.116;11.660;2022-09-09T09:03:00;95517.28;;;16.83;88.49
65800;BME280;52544;48.116;11.660;2022-09-09T09:05:37;95515.78;;;16.80;87.93
65800;BME280;52544;48.116;11.660;2022-09-09T09:08:12;95510.44;;;16.80;88.44
65800;BME280;52544;48.116;11.660;2022-09-09T09:10:45;95507.94;;;16.79;89.59
65800;BME280;52544;48.116;11.660;2022-09-09T09:16:07;95517.63;;;16.80;90.99
65800;BME280;52544;48.116;11.660;2022-09-09T09:18:35;95515.97;;;16.79;90.43
65800;BME280;52544;48.116;11.660;2022-09-09T09:21:12;95509.09;;;16.84;89.58
65800;BME280;52544;48.116;11.660;2022-09-09T09:23:51;95507.75;;;16.88;89.80
65800;BME280;52544;48.116;11.660;2022-09-09T09:26:20;95515.78;;;16.88;90.35
65800;BME280;52544;48.116;11.660;2022-09-09T09:28:47;95516.06;;;16.93;89.63
65800;BME280;52544;48.116;11.660;2022-09-09T09:31:13;95513.56;;;17.00;90.38
65800;BME280;52544;48.116;11.660;2022-09-09T09:33:52;95514.88;;;17.04;90.77
65800;BME280;52544;48.116;11.660;2022-09-09T09:36:23;95509.03;;;17.09;90.66
65800;BME280;52544;48.116;11.660;2022-09-09T09:38:57;95515.00;;;17.11;87.74
65800;BME280;52544;48.116;11.660;2022-09-09T09:41:33;95527.88;;;17.07;88.90
65800;BME280;52544;48.116;11.660;2022-09-09T09:44:01;95524.56;;;17.05;88.23
65800;BME280;52544;48.116;11.660;2022-09-09T09:46:27;95515.22;;;17.01;88.54
65800;BME280;52544;48.116;11.660;2022-09-09T09:49:00;95522.91;;;17.04;88.21
65800;BME280;52544;48.116;11.660;2022-09-09T09:51:28;95532.59;;;17.05;88.04
65800;BME280;52544;48.116;11.660;2022-09-09T09:54:17;95530.75;;;17.06;87.73
65800;BME280;52544;48.116;11.660;2022-09-09T09:56:46;95530.94;;;17.04;86.86
65800;BME280;52544;48.116;11.660;2022-09-09T10:01:53;95533.09;;;17.01;86.71
65800;BME280;52544;48.116;11.660;2022-09-09T10:04:21;95527.25;;;16.97;85.85
65800;BME280;52544;48.116;11.660;2022-09-09T10:06:48;95535.59;;;17.02;84.72
65800;BME280;52544;48.116;11.660;2022-09-09T10:09:28;95524.56;;;17.05;84.76
65800;BME280;52544;48.116;11.660;2022-09-09T10:12:12;95519.88;;;17.07;84.01
65800;BME280;52544;48.116;11.660;2022-09-09T10:26:50;95532.28;;;17.00;83.83
65800;BME280;52544;48.116;11.660;2022-09-09T10:42:16;95538.47;;;16.92;83.84
65800;BME280;52544;48.116;11.660;2022-09-09T10:47:26;95533.94;;;17.01;86.11
65800;BME280;52544;48.116;11.660;2022-09-09T10:53:10;95528.56;;;17.09;85.13
65800;BME280;52544;48.116;11.660;2022-09-09T10:55:47;95543.91;;;17.15;86.14
65800;BME280;52544;48.116;11.660;2022-09-09T11:01:24;95533.34;;;17.30;85.76
65800;BME280;52544;48.116;11.660;2022-09-09T11:04:16;95528.78;;;17.39;83.91
65800;BME280;52544;48.116;11.660;2022-09-09T11:06:44;95528.75;;;17.47;85.01
65800;BME280;52544;48.116;11.660;2022-09-09T11:09:19;95527.38;;;17.51;83.61
65800;BME280;52544;48.116;11.660;2022-09-09T11:11:54;95531.09;;;17.50;84.06
65800;BME280;52544;48.116;11.660;2022-09-09T11:14:28;95533.38;;;17.53;82.02
65800;BME280;52544;48.116;11.660;2022-09-09T11:16:59;95525.06;;;17.48;81.84
65800;BME280;52544;48.116;11.660;2022-09-09T11:19:40;95524.88;;;17.49;80.60
65800;BME280;52544;48.116;11.660;2022-09-09T11:22:14;95521.06;;;17.44;82.57
65800;BME280;52544;48.116;11.660;2022-09-09T11:24:51;95516.72;;;17.43;81.37
65800;BME280;52544;48.116;11.660;2022-09-09T11:27:40;95523.75;;;17.44;79.78
65800;BME280;52544;48.116;11.660;2022-09-09T11:30:18;95527.78;;;17.40;80.26
65800;BME280;52544;48.116;11.660;2022-09-09T11:36:11;95525.66;;;17.58;78.52
65800;BME280;52544;48.116;11.660;2022-09-09T11:38:50;95514.63;;;17.61;78.76
65800;BME280;52544;48.116;11.660;2022-09-09T11:41:17;95519.81;;;17.63;78.62
65800;BME280;52544;48.116;11.660;2022-09-09T11:43:51;95520.09;;;17.68;77.52
65800;BME280;52544;48.116;11.660;2022-09-09T11:46:20;95515.19;;;17.80;78.70
65800;BME280;52544;48.116;11.660;2022-09-09T11:49:02;95518.84;;;17.87;76.39
65800;BME280;52544;48.116;11.660;2022-09-09T11:51:29;95504.09;;;17.91;77.89
65800;BME280;52544;48.116;11.660;2022-09-09T11:54:31;95512.78;;;17.93;76.47
65800;BME280;52544;48.116;11.660;2022-09-09T11:56:57;95512.41;;;17.96;77.61
65800;BME280;52544;48.116;11.660;2022-09-09T11:59:31;95514.44;;;17.94;76.95
65800;BME280;52544;48.116;11.660;2022-09-09T12:02:15;95512.41;;;17.96;74.30
65800;BME280;52544;48.116;11.660;2022-09-09T12:04:49;95501.34;;;17.99;75.91
65800;BME280;52544;48.116;11.660;2022-09-09T12:07:28;95507.38;;;18.01;76.46
65800;BME280;52544;48.116;11.660;2022-09-09T12:10:03;95510.22;;;17.99;75.80
65800;BME280;52544;48.116;11.660;2022-09-09T12:12:37;95510.41;;;17.98;74.99
65800;BME280;52544;48.116;11.660;2022-09-09T12:17:49;95509.88;;;18.03;76.21
65800;BME280;52544;48.116;11.660;2022-09-09T12:20:21;95510.50;;;18.05;75.05
65800;BME280;52544;48.116;11.660;2022-09-09T12:23:22;95510.50;;;18.05;74.59
65800;BME280;52544;48.116;11.660;2022-09-09T12:26:10;95508.97;;;18.10;73.91
65800;BME280;52544;48.116;11.660;2022-09-09T12:29:04;95504.94;;;18.14;73.32
65800;BME280;52544;48.116;11.660;2022-09-09T12:31:40;95507.91;;;18.19;71.99
65800;BME280;52544;48.116;11.660;2022-09-09T12:34:11;95500.16;;;18.24;70.99
65800;BME280;52544;48.116;11.660;2022-09-09T12:36:39;95495.06;;;18.30;71.71
65800;BME280;52544;48.116;11.660;2022-09-09T12:39:33;95499.41;;;18.31;71.40
65800;BME280;52544;48.116;11.660;2022-09-09T12:41:57;95500.38;;;18.38;71.63
65800;BME280;52544;48.116;11.660;2022-09-09T12:44:24;95499.47;;;18.45;71.31
65800;BME280;52544;48.116;11.660;2022-09-09T12:46:51;95498.66;;;18.60;71.15
65800;BME280;52544;48.116;11.660;2022-09-09T12:49:38;95489.69;;;18.67;69.25
65800;BME280;52544;48.116;11.660;2022-09-09T12:52:13;95489.84;;;18.74;69.49
65800;BME280;52544;48.116;11.660;2022-09-09T12:54:44;95489.94;;;18.81;70.97
65800;BME280;52544;48.116;11.660;2022-09-09T12:57:12;95478.84;;;19.13;72.08
65800;BME280;52544;48.116;11.660;2022-09-09T12:59:41;95480.03;;;19.26;68.02
65800;BME280;52544;48.116;11.660;2022-09-09T13:02:25;95482.25;;;19.22;67.22
65800;BME280;52544;48.116;11.660;2022-09-09T13:04:51;95480.59;;;19.21;68.40
65800;BME280;52544;48.116;11.660;2022-09-09T13:07:18;95479.56;;;19.07;68.91
65800;BME280;52544;48.116;11.660;2022-09-09T13:09:45;95472.75;;;19.05;69.04
65800;BME280;52544;48.116;11.660;2022-09-09T13:12:22;95467.75;;;19.02;69.68
65800;BME280;52544;48.116;11.660;2022-09-09T13:14:51;95460.44;;;18.95;71.35
65800;BME280;52544;48.116;11.660;2022-09-09T13:17:21;95462.94;;;18.97;71.24
65800;BME280;52544;48.116;11.660;2022-09-09T13:19:47;95471.25;;;19.02;70.94
65800;BME280;52544;48.116;11.660;2022-09-09T13:27:39;95451.47;;;19.03;66.34
65800;BME280;52544;48.116;11.660;2022-09-09T13:30:24;95453.13;;;18.89;67.92
65800;BME280;52544;48.116;11.660;2022-09-09T13:33:00;95460.00;;;18.92;67.40
65800;BME280;52544;48.116;11.660;2022-09-09T13:35:26;95461.09;;;18.83;67.16
65800;BME280;52544;48.116;11.660;2022-09-09T13:37:52;95461.00;;;18.76;68.17
65800;BME280;52544;48.116;11.660;2022-09-09T13:40:20;95453.16;;;18.75;67.97
65800;BME280;52544;48.116;11.660;2022-09-09T13:42:47;95455.78;;;18.60;67.98
65800;BME280;52544;48.116;11.660;2022-09-09T13:45:21;95452.19;;;18.53;67.31
65800;BME280;52544;48.116;11.660;2022-09-09T13:47:47;95449.84;;;18.49;68.54
65800;BME280;52544;48.116;11.660;2022-09-09T13:50:25;95448.44;;;18.39;69.75
65800;BME280;52544;48.116;11.660;2022-09-09T13:52:58;95450.28;;;18.23;70.64
65800;BME280;52544;48.116;11.660;2022-09-09T13:55:26;95446.03;;;18.14;71.27
65800;BME280;52544;48.116;11.660;2022-09-09T13:57:53;95444.03;;;18.08;71.88
65800;BME280;52544;48.116;11.660;2022-09-09T14:00:20;95436.19;;;18.07;72.23
65800;BME280;52544;48.116;11.660;2022-09-09T14:02:46;95429.75;;;18.01;72.87
65800;BME280;52544;48.116;11.660;2022-09-09T14:05:12;95425.91;;;17.95;73.58
65800;BME280;52544;48.116;11.660;2022-09-09T14:07:39;95434.69;;;17.89;74.42
65800;BME280;52544;48.116;11.660;2022-09-09T14:10:06;95427.13;;;17.93;74.18
65800;BME280;52544;48.116;11.660;2022-09-09T14:12:31;95436.53;;;17.89;75.12
65800;BME280;52544;48.116;11.660;2022-09-09T14:14:57;95435.16;;;17.93;74.33
65800;BME280;52544;48.116;11.660;2022-09-09T14:17:22;95440.03;;;17.89;73.74
65800;BME280;52544;48.116;11.660;2022-09-09T14:19:48;95436.97;;;17.92;74.03
65800;BME280;52544;48.116;11.660;2022-09-09T14:22:14;95434.13;;;17.94;73.44
65800;BME280;52544;48.116;11.660;2022-09-09T14:24:39;95436.69;;;17.87;74.21
65800;BME280;52544;48.116;11.660;2022-09-09T14:27:06;95436.34;;;17.90;73.66
65800;BME280;52544;48.116;11.660;2022-09-09T14:29:31;95436.00;;;17.93;73.74
65800;BME280;52544;48.116;11.660;2022-09-09T14:31:58;95438.97;;;18.13;72.20
65800;BME280;52544;48.116;11.660;2022-09-09T14:34:26;95445.28;;;18.20;71.46